Time;durP1;ratioP1;P1;durP2;ratioP2;P2;SDS_P1;SDS_P2;PMS_P1;PMS_P2;Temp;Humidity;BMP_temperature;BMP_pressure;BME280_temperature;BME280_humidity;BME280_pressure;Samples;Min_cycle;Max_cycle;Signal;HPM_P1;HPM_P2
2021/08/21 00:01:37;;;;;;;1.92;1.65;;;;;;;22.27;56.71;101898.16;4940386;29;20474;-78
2021/08/21 00:04:02;;;;;;;1.70;1.25;;;;;;;22.29;56.80;101900.78;4940258;29;20090;-77
2021/08/21 00:06:28;;;;;;;1.77;1.48;;;;;;;22.29;56.63;101904.31;4957805;29;20383;-77
2021/08/21 00:08:53;;;;;;;2.78;1.60;;;;;;;22.26;56.79;101890.25;4924069;29;20519;-77
2021/08/21 00:11:18;;;;;;;1.65;1.25;;;;;;;22.28;56.79;101891.13;4940365;29;20554;-78
2021/08/21 00:13:44;;;;;;;1.63;1.45;;;;;;;22.25;56.63;101892.00;4940559;29;20039;-78
2021/08/21 00:16:09;;;;;;;1.77;1.38;;;;;;;22.27;56.68;101894.66;4940840;29;20039;-78
2021/08/21 00:18:35;;;;;;;1.60;1.48;;;;;;;22.29;56.69;101890.25;4909261;29;20027;-77
2021/08/21 00:21:00;;;;;;;1.88;1.70;;;;;;;22.25;56.73;101884.13;4957673;29;20027;-77
2021/08/21 00:23:26;;;;;;;1.88;1.67;;;;;;;22.27;56.65;101887.63;4924668;29;20548;-78
2021/08/21 00:25:51;;;;;;;2.58;1.63;;;;;;;22.27;56.83;101886.75;4924300;29;20545;-78
2021/08/21 00:28:16;;;;;;;2.00;1.50;;;;;;;22.25;56.64;101889.38;4957450;29;20102;-77
2021/08/21 00:30:42;;;;;;;1.50;1.40;;;;;;;22.29;56.65;101892.88;4940022;29;20035;-72
2021/08/21 00:33:07;;;;;;;3.22;1.58;;;;;;;22.28;56.69;101885.84;4956318;29;20126;-73
2021/08/21 00:35:32;;;;;;;1.60;1.50;;;;;;;22.28;56.70;101889.38;4956116;29;20067;-72
2021/08/21 00:37:58;;;;;;;2.45;1.83;;;;;;;22.27;56.76;101890.25;4939295;29;20023;-72
2021/08/21 00:40:23;;;;;;;2.22;1.85;;;;;;;22.22;56.61;101877.97;4956076;29;20019;-73
2021/08/21 00:42:53;;;;;;;2.05;1.63;;;;;;;22.25;56.40;101884.13;4939049;29;20060;-73
2021/08/21 00:45:19;;;;;;;2.63;1.88;;;;;;;22.27;56.60;101889.38;4938975;29;20027;-72
2021/08/21 00:47:45;;;;;;;2.00;1.50;;;;;;;22.24;56.53;101887.63;4938934;29;20043;-72
2021/08/21 00:50:11;;;;;;;2.47;1.38;;;;;;;22.23;56.61;101877.09;4937959;29;20394;-72
2021/08/21 00:52:38;;;;;;;2.20;1.83;;;;;;;22.23;56.60;101877.09;4922965;29;20035;-73
2021/08/21 00:55:03;;;;;;;1.95;1.52;;;;;;;22.22;56.61;101877.97;4955941;29;20027;-73
2021/08/21 00:57:30;;;;;;;2.42;2.08;;;;;;;22.26;56.67;101879.72;4938750;29;20038;-73
2021/08/21 00:59:55;;;;;;;2.75;1.75;;;;;;;22.22;56.50;101870.94;4938819;29;20023;-72
2021/08/21 01:02:21;;;;;;;1.52;1.30;;;;;;;22.27;56.46;101878.84;4955842;29;20470;-72
2021/08/21 01:04:51;;;;;;;2.40;1.67;;;;;;;22.23;56.53;101866.53;4955938;29;20031;-73
2021/08/21 01:07:23;;;;;;;1.58;1.25;;;;;;;22.26;56.66;101869.19;4955714;29;20121;-73
2021/08/21 01:09:48;;;;;;;1.73;1.50;;;;;;;22.25;56.71;101864.78;4938429;29;20020;-73
2021/08/21 01:12:17;;;;;;;2.15;1.55;;;;;;;22.22;56.65;101863.03;4955779;29;20042;-72
2021/08/21 01:14:44;;;;;;;1.90;1.50;;;;;;;22.24;56.54;101866.53;4938443;29;20081;-72
2021/08/21 01:17:10;;;;;;;2.50;2.13;;;;;;;22.23;56.54;101866.53;4938539;29;20485;-72
2021/08/21 01:19:39;;;;;;;2.20;1.92;;;;;;;22.24;56.52;101863.91;4938265;29;20498;-72
2021/08/21 01:22:16;;;;;;;1.70;1.40;;;;;;;22.22;56.63;101863.03;4938249;29;20041;-73
2021/08/21 01:24:42;;;;;;;2.30;1.70;;;;;;;22.24;56.65;101868.31;4955542;29;20027;-72
2021/08/21 01:27:24;;;;;;;1.65;1.40;;;;;;;22.13;56.54;101851.66;4938362;29;20031;-73
2021/08/21 01:29:50;;;;;;;2.05;1.67;;;;;;;22.24;56.63;101866.53;4955506;29;20027;-77
2021/08/21 01:32:17;;;;;;;2.13;1.92;;;;;;;22.20;56.60;101859.53;4955576;29;20027;-78
2021/08/21 01:34:43;;;;;;;2.60;1.88;;;;;;;22.22;56.53;101862.16;4938585;29;20057;-78
2021/08/21 01:37:08;;;;;;;3.55;1.80;;;;;;;22.24;56.52;101865.66;4922678;29;20039;-77
2021/08/21 01:39:35;;;;;;;1.75;1.50;;;;;;;22.24;56.58;101868.31;4922929;29;20074;-77
2021/08/21 01:42:01;;;;;;;2.00;1.77;;;;;;;22.20;56.64;101859.53;4938453;29;20121;-78
2021/08/21 01:44:27;;;;;;;1.70;1.48;;;;;;;22.22;56.51;101870.06;4938766;29;20031;-78
2021/08/21 01:46:52;;;;;;;1.90;1.50;;;;;;;22.22;56.56;101873.56;4941110;29;20038;-77
2021/08/21 01:49:19;;;;;;;1.95;1.75;;;;;;;22.23;56.58;101874.44;4939902;29;20032;-77
2021/08/21 01:51:50;;;;;;;2.55;1.95;;;;;;;22.22;56.54;101870.94;4961667;29;20027;-78
2021/08/21 01:54:23;;;;;;;2.20;1.70;;;;;;;22.23;56.48;101866.53;4961971;29;20470;-77
2021/08/21 01:56:52;;;;;;;2.35;1.95;;;;;;;22.17;56.72;101863.97;4958298;29;20035;-78
2021/08/21 01:59:20;;;;;;;1.70;1.38;;;;;;;22.20;56.39;101874.50;4961846;29;20039;-78
2021/08/21 02:01:46;;;;;;;1.60;1.30;;;;;;;22.17;56.57;101866.59;4932062;29;20090;-77
2021/08/21 02:04:11;;;;;;;1.98;1.70;;;;;;;22.22;56.53;101873.56;4947289;29;20066;-77
2021/08/21 02:06:36;;;;;;;2.20;2.00;;;;;;;22.20;56.58;101863.94;4929673;29;20512;-78
2021/08/21 02:09:02;;;;;;;2.25;1.45;;;;;;;22.23;56.48;101870.06;4929743;29;20099;-78
2021/08/21 02:11:27;;;;;;;2.10;1.88;;;;;;;22.21;56.58;101863.03;4962275;29;20032;-76
2021/08/21 02:13:53;;;;;;;3.22;1.77;;;;;;;22.21;56.60;101877.09;4944771;29;20122;-78
2021/08/21 02:16:19;;;;;;;1.98;1.70;;;;;;;22.22;56.60;101872.69;4962560;29;20035;-77
2021/08/21 02:18:44;;;;;;;1.73;1.55;;;;;;;22.21;56.50;101869.19;4929212;29;20042;-78
2021/08/21 02:21:10;;;;;;;1.92;1.58;;;;;;;22.20;56.49;101867.44;4929255;29;20024;-76
2021/08/21 02:23:35;;;;;;;1.58;1.35;;;;;;;22.21;56.63;101866.56;4944720;29;20039;-77
2021/08/21 02:26:00;;;;;;;1.65;1.30;;;;;;;22.10;56.57;101853.44;4944710;29;20038;-77
2021/08/21 02:28:26;;;;;;;2.08;1.50;;;;;;;22.21;56.41;101870.94;4928655;29;20078;-77
2021/08/21 02:30:51;;;;;;;1.88;1.50;;;;;;;22.20;56.54;101874.50;4962127;29;20027;-78
2021/08/21 02:33:16;;;;;;;1.73;1.35;;;;;;;22.18;56.59;101869.22;4962118;29;20497;-77
2021/08/21 02:35:42;;;;;;;1.98;1.52;;;;;;;22.21;56.41;101874.47;4940640;29;20130;-76
2021/08/21 02:38:09;;;;;;;1.52;1.40;;;;;;;22.20;56.35;101870.06;4938562;29;20071;-73
2021/08/21 02:40:34;;;;;;;1.42;1.20;;;;;;;22.17;56.63;101869.22;4939170;29;20032;-73
2021/08/21 02:42:59;;;;;;;1.70;1.40;;;;;;;22.18;56.34;101874.50;4939046;29;20039;-72
2021/08/21 02:45:25;;;;;;;1.58;1.30;;;;;;;22.19;56.52;101876.25;4937939;29;19915;-72
2021/08/21 02:47:50;;;;;;;1.95;1.45;;;;;;;22.15;56.65;101871.88;4939214;29;20105;-72
2021/08/21 02:50:16;;;;;;;1.92;1.70;;;;;;;22.17;56.57;101869.22;4937838;29;20039;-72
2021/08/21 02:52:41;;;;;;;1.45;1.08;;;;;;;22.16;56.48;101868.34;4937891;29;20031;-73
2021/08/21 02:55:07;;;;;;;2.28;1.70;;;;;;;22.16;56.31;101863.06;4938976;29;20039;-73
2021/08/21 02:57:32;;;;;;;2.00;1.40;;;;;;;22.20;56.42;101869.22;4937797;29;20394;-73
2021/08/21 02:59:58;;;;;;;1.75;1.50;;;;;;;22.16;56.52;101862.19;4937526;29;20040;-72
2021/08/21 03:02:23;;;;;;;1.98;1.42;;;;;;;22.16;56.46;101867.47;4906240;29;20054;-73
2021/08/21 03:04:48;;;;;;;2.03;1.83;;;;;;;22.18;56.42;101866.59;4937491;29;20032;-72
2021/08/21 03:07:14;;;;;;;2.33;1.80;;;;;;;22.15;56.53;101865.72;4938913;29;20043;-73
2021/08/21 03:09:39;;;;;;;2.08;1.58;;;;;;;22.15;56.38;101866.59;4921783;29;20091;-73
2021/08/21 03:12:05;;;;;;;1.50;1.20;;;;;;;22.18;56.47;101874.50;4938043;29;20027;-72
2021/08/21 03:14:30;;;;;;;2.15;1.55;;;;;;;22.13;56.47;101868.34;4937241;29;20027;-72
2021/08/21 03:16:58;;;;;;;1.55;1.40;;;;;;;22.10;56.46;101861.31;4938596;29;20014;-73
2021/08/21 03:19:24;;;;;;;1.35;1.10;;;;;;;22.14;56.41;101864.84;4921485;29;20035;-72
2021/08/21 03:21:49;;;;;;;1.60;1.40;;;;;;;22.14;56.58;101858.69;4936996;29;20024;-72
2021/08/21 03:24:15;;;;;;;1.80;1.27;;;;;;;22.17;56.36;101872.75;4937396;29;20031;-73
2021/08/21 03:26:40;;;;;;;1.83;1.63;;;;;;;22.09;56.49;101858.69;4937309;29;20507;-72
2021/08/21 03:29:05;;;;;;;1.42;1.20;;;;;;;22.17;56.40;101877.13;4905588;29;20031;-72
2021/08/21 03:31:31;;;;;;;1.40;1.23;;;;;;;22.14;56.35;101872.75;4938470;29;20040;-73
2021/08/21 03:33:56;;;;;;;2.05;1.60;;;;;;;22.11;56.41;101864.84;4938207;29;20499;-72
2021/08/21 03:36:22;;;;;;;1.63;1.35;;;;;;;22.16;56.38;101867.47;4956102;29;20051;-73
2021/08/21 03:38:47;;;;;;;1.35;1.10;;;;;;;22.11;56.29;101854.31;4940120;29;20094;-72
2021/08/21 03:41:13;;;;;;;1.77;1.30;;;;;;;22.11;56.28;101856.94;4924205;29;20352;-72
2021/08/21 03:43:38;;;;;;;1.52;1.33;;;;;;;22.17;56.54;101866.59;4957545;29;19918;-73
2021/08/21 03:46:04;;;;;;;1.77;1.42;;;;;;;22.14;56.34;101859.56;4939887;29;20493;-73
2021/08/21 03:48:29;;;;;;;1.67;1.20;;;;;;;22.12;56.29;101856.06;4940096;29;20438;-73
2021/08/21 03:50:54;;;;;;;1.73;1.23;;;;;;;22.14;56.36;101859.56;4957064;29;20102;-72
2021/08/21 03:53:20;;;;;;;1.30;1.20;;;;;;;22.12;56.33;101855.19;4957135;29;20114;-73
2021/08/21 03:55:48;;;;;;;1.45;1.15;;;;;;;22.11;56.23;101854.31;4956942;29;20159;-73
2021/08/21 03:58:13;;;;;;;1.70;1.40;;;;;;;22.11;56.37;101849.03;4924233;29;20065;-73
2021/08/21 04:00:39;;;;;;;1.60;1.23;;;;;;;22.12;56.36;101861.31;4940034;29;20047;-78
2021/08/21 04:03:05;;;;;;;1.35;1.23;;;;;;;22.14;56.32;101856.94;4940003;29;20057;-77
2021/08/21 04:05:31;;;;;;;1.63;1.20;;;;;;;22.14;56.35;101859.56;4940434;29;20030;-78
2021/08/21 04:07:59;;;;;;;1.50;1.20;;;;;;;22.09;56.30;101851.69;4957085;29;20042;-78
2021/08/21 04:10:25;;;;;;;1.52;1.20;;;;;;;22.11;56.16;101854.31;4924424;29;20095;-78
2021/08/21 04:12:50;;;;;;;1.63;1.42;;;;;;;22.12;56.23;101849.91;4939904;29;20031;-77
2021/08/21 04:15:16;;;;;;;1.88;1.35;;;;;;;22.10;56.23;101858.69;4923818;29;20481;-77
2021/08/21 04:17:41;;;;;;;2.00;1.20;;;;;;;22.14;56.38;101859.56;4923827;29;20016;-76
2021/08/21 04:20:07;;;;;;;1.38;1.27;;;;;;;22.14;56.28;101862.19;4939827;29;20122;-77
2021/08/21 04:22:32;;;;;;;1.50;1.20;;;;;;;22.12;56.33;101856.06;4957772;29;20066;-78
2021/08/21 04:24:58;;;;;;;1.70;1.40;;;;;;;22.12;56.27;101855.19;4940589;29;20437;-78
2021/08/21 04:27:24;;;;;;;2.30;1.73;;;;;;;22.15;56.32;101858.69;4942995;29;20035;-78
2021/08/21 04:29:49;;;;;;;1.40;1.23;;;;;;;22.07;56.28;101845.53;4943863;29;20027;-78
2021/08/21 04:32:15;;;;;;;1.77;1.17;;;;;;;22.11;56.23;101849.03;4928668;29;20031;-78
2021/08/21 04:34:40;;;;;;;1.45;1.20;;;;;;;22.10;56.45;101850.78;4944432;29;20078;-78
2021/08/21 04:37:06;;;;;;;1.65;1.38;;;;;;;22.08;56.30;101843.78;4928576;29;20046;-78
2021/08/21 04:39:31;;;;;;;1.52;1.40;;;;;;;22.14;56.35;101853.44;4960978;29;20035;-78
2021/08/21 04:41:57;;;;;;;1.67;1.13;;;;;;;22.08;56.27;101844.66;4943999;29;20430;-77
2021/08/21 04:44:22;;;;;;;1.85;1.48;;;;;;;22.14;56.28;101851.66;4959353;29;20069;-77
2021/08/21 04:46:48;;;;;;;1.75;1.40;;;;;;;22.11;56.32;101843.78;4960119;29;20474;-77
2021/08/21 04:49:13;;;;;;;1.55;1.20;;;;;;;22.14;56.36;101853.44;4910316;29;20043;-78
2021/08/21 04:51:38;;;;;;;1.65;1.02;;;;;;;22.12;56.50;101850.78;4925737;29;20058;-77
2021/08/21 04:54:04;;;;;;;1.70;1.30;;;;;;;22.12;56.18;101848.16;4926054;29;20040;-77
2021/08/21 04:56:29;;;;;;;1.70;1.38;;;;;;;22.11;56.25;101843.78;4925752;29;20039;-76
2021/08/21 04:58:55;;;;;;;1.95;1.40;;;;;;;22.12;56.31;101850.78;4925992;29;20113;-78
2021/08/21 05:01:21;;;;;;;1.55;1.17;;;;;;;22.11;56.25;101859.56;4941274;29;20120;-77
2021/08/21 05:03:47;;;;;;;1.90;1.60;;;;;;;22.03;56.37;101837.66;4957869;29;20031;-78
2021/08/21 05:06:12;;;;;;;1.42;1.20;;;;;;;22.11;56.21;101849.03;4961611;29;20039;-78
2021/08/21 05:08:38;;;;;;;2.10;1.80;;;;;;;22.13;56.21;101857.81;4946053;29;20035;-78
2021/08/21 05:11:03;;;;;;;2.55;1.35;;;;;;;22.14;56.27;101861.31;4926833;29;20023;-78
2021/08/21 05:13:31;;;;;;;1.33;1.05;;;;;;;22.16;56.14;101867.47;4945348;29;20031;-78
2021/08/21 05:15:56;;;;;;;1.35;1.20;;;;;;;22.14;56.26;101863.97;4932258;29;20122;-78
2021/08/21 05:18:48;;;;;;;1.65;1.40;;;;;;;22.11;56.23;101864.84;4946901;29;20063;-77
2021/08/21 05:21:12;;;;;;;1.45;1.15;;;;;;;22.15;56.20;101866.59;4960377;29;20070;-78
2021/08/21 05:23:38;;;;;;;1.88;1.25;;;;;;;22.15;56.44;101870.97;4943682;29;20454;-77
2021/08/21 05:26:04;;;;;;;1.67;1.30;;;;;;;22.15;56.17;101868.34;4960245;29;20031;-78
2021/08/21 05:28:29;;;;;;;1.98;1.42;;;;;;;22.16;56.27;101878.00;4960344;29;20493;-77
2021/08/21 05:30:55;;;;;;;1.08;0.93;;;;;;;22.14;56.30;101870.09;4960216;29;20035;-77
2021/08/21 05:33:21;;;;;;;1.75;1.17;;;;;;;22.14;56.20;101869.22;4942685;29;20031;-79
2021/08/21 05:35:46;;;;;;;1.77;1.48;;;;;;;22.12;56.14;101863.09;4959239;29;20130;-78
2021/08/21 05:38:12;;;;;;;1.73;1.20;;;;;;;22.15;56.30;101874.50;4926576;29;20053;-79
2021/08/21 05:40:38;;;;;;;1.23;0.93;;;;;;;22.13;56.29;101873.63;4941620;29;20043;-77
2021/08/21 05:43:04;;;;;;;1.67;1.25;;;;;;;22.00;56.26;101851.72;4959055;29;20532;-78
2021/08/21 05:45:29;;;;;;;1.85;1.38;;;;;;;22.12;56.25;101871.00;4941391;29;20066;-77
2021/08/21 05:47:55;;;;;;;1.27;1.00;;;;;;;22.10;56.17;101869.22;4925791;29;20043;-77
2021/08/21 05:50:21;;;;;;;1.35;1.20;;;;;;;22.16;56.31;101880.66;4941887;29;20438;-77
2021/08/21 05:52:48;;;;;;;1.55;1.10;;;;;;;22.15;56.22;101882.41;4958976;29;20035;-77
2021/08/21 05:55:13;;;;;;;1.67;1.15;;;;;;;22.16;56.38;101873.63;4941331;29;20031;-78
2021/08/21 05:57:39;;;;;;;1.58;1.35;;;;;;;22.14;56.11;101877.13;4941350;29;20034;-77
2021/08/21 06:00:06;;;;;;;2.28;1.58;;;;;;;22.13;56.02;101876.25;4940877;29;20035;-77
2021/08/21 06:02:31;;;;;;;1.50;1.38;;;;;;;22.16;56.22;101878.88;4925011;29;20115;-77
2021/08/21 06:04:57;;;;;;;2.15;1.52;;;;;;;22.18;56.04;101877.13;4940667;29;20043;-77
2021/08/21 06:07:22;;;;;;;1.75;1.25;;;;;;;22.17;56.06;101878.00;4941135;29;20050;-77
2021/08/21 06:09:48;;;;;;;2.22;1.20;;;;;;;22.22;56.04;101883.25;4957673;29;20035;-78
2021/08/21 06:12:13;;;;;;;1.38;1.17;;;;;;;22.20;56.08;101883.25;4957652;29;20051;-77
2021/08/21 06:14:39;;;;;;;1.80;1.30;;;;;;;22.20;56.12;101888.50;4957359;29;20465;-79
2021/08/21 06:17:08;;;;;;;1.30;1.00;;;;;;;22.21;56.05;101884.13;4957554;29;20038;-77
2021/08/21 06:19:37;;;;;;;1.58;1.15;;;;;;;22.20;56.06;101880.59;4939823;29;20031;-78
2021/08/21 06:22:04;;;;;;;1.75;1.30;;;;;;;22.22;56.10;101889.38;4957474;29;20043;-78
2021/08/21 06:24:30;;;;;;;1.80;1.48;;;;;;;22.21;56.09;101881.47;4956920;29;20061;-78
2021/08/21 06:26:55;;;;;;;1.58;1.20;;;;;;;22.21;56.29;101881.47;4939332;29;20031;-78
2021/08/21 06:29:20;;;;;;;1.48;1.27;;;;;;;22.21;56.23;101881.47;4956806;29;20118;-77
2021/08/21 06:31:46;;;;;;;1.20;1.10;;;;;;;22.22;56.18;101883.25;4940097;29;20034;-78
2021/08/21 06:34:11;;;;;;;1.95;1.20;;;;;;;22.17;55.96;101885.03;4957453;29;20067;-78
2021/08/21 06:36:37;;;;;;;1.58;1.30;;;;;;;22.18;56.21;101889.44;4940183;29;20042;-77
2021/08/21 06:39:03;;;;;;;1.92;1.50;;;;;;;22.21;56.28;101887.63;4940285;29;20069;-78
2021/08/21 06:41:28;;;;;;;1.65;1.33;;;;;;;22.21;56.18;101886.75;4957136;29;20023;-78
2021/08/21 06:43:53;;;;;;;1.88;1.27;;;;;;;22.17;56.11;101883.28;4956763;29;20027;-78
2021/08/21 06:46:19;;;;;;;1.90;1.40;;;;;;;22.16;56.14;101878.88;4956659;29;20110;-77
2021/08/21 06:48:44;;;;;;;2.30;1.40;;;;;;;22.18;56.23;101882.41;4925395;29;20035;-78
2021/08/21 06:51:10;;;;;;;1.40;1.05;;;;;;;22.20;56.25;101892.94;4959987;29;20478;-77
2021/08/21 06:53:35;;;;;;;1.30;1.08;;;;;;;22.17;56.11;101880.63;4959604;29;20111;-76
2021/08/21 06:56:04;;;;;;;1.58;1.20;;;;;;;22.20;56.41;101882.41;4926680;29;20042;-77
2021/08/21 06:58:30;;;;;;;1.50;1.35;;;;;;;22.15;56.28;101877.13;4942066;29;20482;-78
2021/08/21 07:00:55;;;;;;;1.75;1.35;;;;;;;22.17;56.28;101885.91;4959929;29;20051;-78
2021/08/21 07:03:21;;;;;;;1.70;1.48;;;;;;;22.21;56.32;101884.13;4942966;29;20031;-73
2021/08/21 07:05:46;;;;;;;1.92;1.40;;;;;;;22.20;56.32;101885.88;4940822;29;20517;-72
2021/08/21 07:08:11;;;;;;;1.25;1.00;;;;;;;22.16;56.29;101884.16;4957994;29;20058;-72
2021/08/21 07:10:37;;;;;;;1.95;1.65;;;;;;;22.14;56.14;101877.13;4958028;29;20023;-72
2021/08/21 07:13:02;;;;;;;1.63;1.38;;;;;;;22.16;56.27;101876.25;4940663;29;20070;-72
2021/08/21 07:15:28;;;;;;;1.88;1.25;;;;;;;22.15;56.26;101874.50;4925128;29;20035;-73
2021/08/21 07:17:53;;;;;;;2.28;1.50;;;;;;;22.16;56.19;101872.75;4924730;29;20490;-72
2021/08/21 07:20:19;;;;;;;2.10;1.90;;;;;;;22.20;56.33;101877.13;4909084;29;20031;-72
2021/08/21 07:22:44;;;;;;;1.65;1.30;;;;;;;22.17;56.26;101878.00;4940781;29;20035;-72
2021/08/21 07:25:10;;;;;;;1.42;1.10;;;;;;;22.21;56.27;101877.09;4940601;29;20031;-73
2021/08/21 07:27:35;;;;;;;1.48;1.33;;;;;;;22.20;56.30;101882.41;4940503;29;20077;-72
2021/08/21 07:30:00;;;;;;;1.98;1.55;;;;;;;22.24;56.29;101884.13;4957771;29;20046;-72
2021/08/21 07:32:26;;;;;;;2.13;1.50;;;;;;;22.20;56.43;101877.13;4939997;29;20477;-72
2021/08/21 07:34:51;;;;;;;1.13;0.90;;;;;;;22.25;56.21;101885.88;4924185;29;20141;-73
2021/08/21 07:37:17;;;;;;;1.88;1.30;;;;;;;22.21;56.16;101878.84;4940284;29;20035;-72
2021/08/21 07:39:42;;;;;;;1.75;1.20;;;;;;;22.21;56.30;101885.00;4957395;29;20119;-73
2021/08/21 07:42:08;;;;;;;2.17;1.38;;;;;;;22.20;56.37;101885.88;4940131;29;20031;-72
2021/08/21 07:44:33;;;;;;;2.00;1.50;;;;;;;22.21;56.38;101881.47;4940166;29;20035;-73
2021/08/21 07:46:59;;;;;;;1.48;1.20;;;;;;;22.18;56.24;101874.50;4957240;29;20027;-73
2021/08/21 07:49:24;;;;;;;1.80;1.33;;;;;;;22.24;56.31;101882.34;4957135;29;20074;-73
2021/08/21 07:51:49;;;;;;;1.73;1.50;;;;;;;22.22;56.45;101878.84;4957119;29;20031;-73
2021/08/21 07:54:15;;;;;;;1.63;1.48;;;;;;;22.26;56.26;101885.88;4939965;29;20394;-73
2021/08/21 07:56:40;;;;;;;1.40;1.08;;;;;;;22.10;56.31;101849.91;4957027;29;20589;-73
2021/08/21 07:59:05;;;;;;;1.65;1.20;;;;;;;22.26;56.27;101872.69;4939525;29;20386;-73
2021/08/21 08:01:31;;;;;;;1.38;1.02;;;;;;;22.31;56.15;101877.94;4939776;29;20027;-73
2021/08/21 08:03:56;;;;;;;1.40;1.00;;;;;;;22.24;55.97;101865.66;4956887;29;20110;-73
2021/08/21 08:06:22;;;;;;;1.38;0.90;;;;;;;22.28;56.16;101878.84;4939769;29;20106;-72
2021/08/21 08:08:47;;;;;;;1.90;1.25;;;;;;;22.30;56.16;101877.06;4940215;29;20385;-77
2021/08/21 08:11:12;;;;;;;1.20;0.90;;;;;;;22.27;56.29;101874.44;4924783;29;20030;-78
2021/08/21 08:13:38;;;;;;;1.60;1.20;;;;;;;22.38;56.26;101887.56;4924497;29;20438;-78
2021/08/21 08:16:03;;;;;;;2.38;1.50;;;;;;;22.41;55.98;101885.81;4958540;29;20035;-78
2021/08/21 08:18:29;;;;;;;2.10;1.55;;;;;;;22.40;56.08;101885.81;4925100;29;20031;-73
2021/08/21 08:20:54;;;;;;;1.73;1.20;;;;;;;22.35;56.21;101883.19;4960238;29;20024;-73
2021/08/21 08:23:19;;;;;;;1.42;1.33;;;;;;;22.34;56.23;101885.81;4961855;29;20047;-73
2021/08/21 08:25:45;;;;;;;1.60;1.20;;;;;;;22.31;56.54;101881.47;4958508;29;20063;-73
2021/08/21 08:28:10;;;;;;;1.60;1.30;;;;;;;22.35;56.22;101890.22;4958313;29;20470;-73
2021/08/21 08:30:36;;;;;;;1.95;1.40;;;;;;;22.32;56.37;101884.97;4928693;29;20020;-73
2021/08/21 08:33:01;;;;;;;1.77;1.40;;;;;;;22.34;56.41;101889.34;4925810;29;20028;-72
2021/08/21 08:35:27;;;;;;;1.60;1.20;;;;;;;22.32;56.53;101891.13;4939359;29;20074;-73
2021/08/21 08:37:52;;;;;;;1.83;1.40;;;;;;;22.33;56.46;101884.94;4956393;29;20366;-73
2021/08/21 08:40:17;;;;;;;1.88;1.27;;;;;;;22.29;56.51;101885.84;4939389;29;20027;-73
2021/08/21 08:42:44;;;;;;;1.05;0.90;;;;;;;22.30;56.47;101884.97;4957014;29;20036;-73
2021/08/21 08:45:11;;;;;;;1.40;1.20;;;;;;;22.30;56.46;101887.63;4957096;29;20497;-74
2021/08/21 08:47:38;;;;;;;1.48;1.27;;;;;;;22.31;56.61;101884.09;4939456;29;20035;-73
2021/08/21 08:50:05;;;;;;;1.95;1.35;;;;;;;22.27;56.65;101882.34;4957115;29;20370;-73
2021/08/21 08:52:32;;;;;;;1.98;1.50;;;;;;;22.31;56.56;101892.00;4957016;29;20027;-73
2021/08/21 08:54:58;;;;;;;1.33;1.05;;;;;;;22.28;56.52;101880.59;4956740;29;20127;-74
2021/08/21 08:57:44;;;;;;;1.60;1.10;;;;;;;22.29;56.55;101891.13;4924105;29;20482;-74
2021/08/21 09:00:11;;;;;;;1.70;1.40;;;;;;;22.33;56.53;101897.28;4938922;29;20359;-73
2021/08/21 09:02:40;;;;;;;1.63;1.15;;;;;;;22.32;56.59;101896.41;4923425;29;20034;-71
2021/08/21 09:05:08;;;;;;;1.40;1.10;;;;;;;22.33;56.55;101892.00;4955965;29;20030;-71
2021/08/21 09:07:45;;;;;;;1.98;1.15;;;;;;;22.34;56.66;101893.72;4938890;29;20051;-72
2021/08/21 09:10:17;;;;;;;1.20;0.88;;;;;;;22.34;56.51;101891.97;4939224;29;20027;-75
2021/08/21 09:12:43;;;;;;;1.52;1.27;;;;;;;22.34;56.59;101888.44;4957491;29;20035;-75
2021/08/21 09:15:24;;;;;;;1.70;1.33;;;;;;;22.34;56.51;101889.34;4925180;29;20047;-77
2021/08/21 09:18:02;;;;;;;1.58;1.10;;;;;;;22.35;56.44;101892.84;4958463;29;20027;-77
2021/08/21 09:20:28;;;;;;;1.80;1.35;;;;;;;22.33;56.59;101889.38;4958138;29;20062;-78
2021/08/21 09:23:22;;;;;;;1.40;1.13;;;;;;;22.34;56.60;101896.34;4959265;29;20110;-78
2021/08/21 09:25:51;;;;;;;1.52;1.20;;;;;;;22.28;56.64;101878.84;4957186;29;20445;-71
2021/08/21 09:28:25;;;;;;;2.40;1.45;;;;;;;22.35;56.66;101890.22;4938850;29;20038;-78
2021/08/21 09:31:10;;;;;;;1.70;1.10;;;;;;;22.35;56.61;101887.56;4940893;29;20023;-79
2021/08/21 09:33:39;;;;;;;1.50;1.30;;;;;;;22.29;56.55;101888.50;4957637;29;20090;-79
2021/08/21 09:36:05;;;;;;;1.27;1.02;;;;;;;22.33;56.39;101892.84;4939132;29;20043;-73
2021/08/21 09:38:33;;;;;;;1.40;1.00;;;;;;;22.35;56.56;101884.94;4938226;29;20474;-73
2021/08/21 09:41:09;;;;;;;1.65;1.25;;;;;;;22.32;56.61;101877.06;4955516;29;20489;-74
2021/08/21 09:43:36;;;;;;;1.77;1.10;;;;;;;22.35;56.75;101882.31;4955531;29;20038;-73
2021/08/21 09:46:19;;;;;;;1.70;1.23;;;;;;;22.33;56.52;101874.41;4955463;29;20071;-73
2021/08/21 09:49:03;;;;;;;1.33;1.13;;;;;;;22.37;56.63;101868.25;4938252;29;20031;-73
2021/08/21 09:51:35;;;;;;;1.40;1.08;;;;;;;22.41;56.41;101872.63;4938766;29;20039;-77
2021/08/21 09:54:03;;;;;;;1.52;0.95;;;;;;;22.41;56.50;101874.38;4956966;29;20083;-77
2021/08/21 09:56:36;;;;;;;1.10;0.95;;;;;;;22.43;56.39;101872.63;4957389;29;20031;-78
2021/08/21 09:59:03;;;;;;;1.35;1.05;;;;;;;22.42;56.50;101870.88;4956914;29;20027;-77
2021/08/21 10:01:29;;;;;;;1.10;0.90;;;;;;;22.43;56.44;101875.25;4938713;29;20545;-72
2021/08/21 10:03:56;;;;;;;1.70;1.15;;;;;;;22.38;56.46;101861.22;4938218;29;20039;-73
2021/08/21 10:06:22;;;;;;;1.13;1.00;;;;;;;22.41;56.45;101870.00;4939573;29;20106;-72
2021/08/21 10:08:49;;;;;;;1.40;1.10;;;;;;;22.41;56.58;101870.00;4955374;29;20537;-71
2021/08/21 10:11:16;;;;;;;1.73;1.33;;;;;;;22.39;56.67;101865.59;4922418;29;20500;-74
2021/08/21 10:13:42;;;;;;;1.40;1.17;;;;;;;22.35;56.46;101855.94;4955234;29;20038;-74
2021/08/21 10:16:12;;;;;;;1.80;1.33;;;;;;;22.36;56.60;101850.69;4937860;29;20536;-74
2021/08/21 10:18:38;;;;;;;1.70;1.10;;;;;;;22.43;56.60;101864.72;4955051;29;20106;-76
2021/08/21 10:21:03;;;;;;;1.65;1.10;;;;;;;22.39;56.43;101857.69;4938151;29;20163;-75
2021/08/21 10:23:29;;;;;;;1.42;1.05;;;;;;;22.45;56.37;101866.47;4941071;29;20066;-75
2021/08/21 10:26:11;;;;;;;1.40;1.08;;;;;;;22.49;56.51;101866.41;4958774;29;20031;-75
2021/08/21 10:28:39;;;;;;;2.17;1.25;;;;;;;22.50;56.21;101860.28;4958672;29;20470;-75
2021/08/21 10:31:06;;;;;;;1.20;1.00;;;;;;;22.50;56.31;101852.34;4958603;29;20030;-75
2021/08/21 10:33:55;;;;;;;1.45;1.10;;;;;;;22.52;56.33;101853.22;4958512;29;20027;-75
2021/08/21 10:36:39;;;;;;;1.48;1.05;;;;;;;22.53;56.21;101855.88;4958264;29;20102;-75
2021/08/21 10:39:20;;;;;;;1.60;1.08;;;;;;;22.52;56.40;101851.47;4958396;29;20053;-75
2021/08/21 10:41:47;;;;;;;1.30;1.05;;;;;;;22.55;56.43;101856.75;4940983;29;20019;-76
2021/08/21 10:44:42;;;;;;;1.20;0.93;;;;;;;22.54;56.39;101851.47;4940924;29;20101;-75
2021/08/21 10:47:29;;;;;;;1.95;1.48;;;;;;;22.55;56.28;101847.94;4958276;29;20024;-75
2021/08/21 10:49:54;;;;;;;1.80;1.38;;;;;;;22.53;56.39;101837.41;4941470;29;20062;-75
2021/08/21 10:52:46;;;;;;;1.33;1.05;;;;;;;22.57;56.30;101851.47;4940919;29;20482;-75
2021/08/21 10:55:28;;;;;;;1.23;1.00;;;;;;;22.57;56.35;101852.34;4958034;29;20374;-75
2021/08/21 10:58:04;;;;;;;1.58;1.48;;;;;;;22.54;56.47;101838.28;4957957;29;20106;-74
2021/08/21 11:00:38;;;;;;;1.60;1.30;;;;;;;22.60;56.36;101848.78;4940643;29;20024;-75
2021/08/21 11:03:36;;;;;;;1.90;1.35;;;;;;;22.61;56.32;101845.25;4958106;29;20115;-75
2021/08/21 11:06:09;;;;;;;1.75;1.50;;;;;;;22.58;56.13;101845.31;4905251;29;20046;-75
2021/08/21 11:08:40;;;;;;;1.20;0.90;;;;;;;22.61;56.35;101840.00;4958016;29;20050;-75
2021/08/21 11:11:08;;;;;;;1.55;1.30;;;;;;;22.59;56.17;101839.16;4957927;29;20029;-75
2021/08/21 11:14:00;;;;;;;1.42;1.20;;;;;;;22.58;56.41;101838.28;4957822;29;20027;-76
2021/08/21 11:17:00;;;;;;;1.40;1.00;;;;;;;22.60;56.17;101827.69;4957772;29;20091;-75
2021/08/21 11:19:44;;;;;;;1.17;1.00;;;;;;;22.59;56.23;101831.25;4952820;29;20039;-75
2021/08/21 11:22:10;;;;;;;1.52;1.10;;;;;;;22.60;56.28;101831.19;4957719;29;20024;-75
2021/08/21 11:24:37;;;;;;;1.77;1.20;;;;;;;22.60;56.28;101830.31;4957825;29;20489;-75
2021/08/21 11:27:24;;;;;;;1.00;0.90;;;;;;;22.60;56.25;101825.06;4957761;29;20395;-75